Chapel Hill, NC (27514)

07:49 EST le 10 février 2016 (GMT -0500)
Cosgrove Hill | | Change Station
CLOSE
Current Station
Stations météorologiques personnelles
Location: Chapel Hill, NC
Altitude: 325 ft
Stations météo à proximité

Alt. 325 ft 35.95 °N, 79.02 °W | Updated 1 second ago

Clear
Ciel dégagé
25.3 ° F
Paraît 25 ° F
N
0.0
Vent Variable Vent de NE
Gusts 0.0 mph

Aujourd'hui
Haut(e) -- | Bas -- ° F
--% Risque de précip.
Hier
Haut(e) -- | Bas -- ° F
Precip. -- pouce
Pression 29.91 pouce
Visibilité 10.0 Miles terrestres
Nuages Ciel dégagé
Refroidissement éolien 25 ° F
Point de rosée 18 ° F
Humidité 73%
Précipitations 0.00 pouce
Profondeur de la couche neigeuse Non disponible.
7:09 AM 5:52 PM
Lune montante, 5% visible
METAR KIGX 101156Z AUTO VRB04KT 10SM CLR M04/M12 A2990 RMK AO2 SLP128 T10441117 11022 21044 51022 TSNO
Pression 29.91 pouce
Visibilité 10.0 Miles terrestres
Nuages Ciel dégagé
Refroidissement éolien 25 ° F
Point de rosée 18 ° F
Humidité 73%
Précipitations 0.00 pouce
Profondeur de la couche neigeuse Non disponible.
7:09 AM 5:52 PM
Lune montante, 5% visible
METAR KIGX 101156Z AUTO VRB04KT 10SM CLR M04/M12 A2990 RMK AO2 SLP128 T10441117 11022 21044 51022 TSNO

10-Day Weather Forecast

Almanac

Astronomie

Feb. 10, 2016 Lever Coucher
Temps réel
Crépuscule civil
Crépuscule nautique
Crépuscule astronomique
Lune
Durée de lumière visible
Longueur du jour
Tomorrow will be .
, % of the Moon is Illuminated

Extrêmes aujourd'hui

State Highs State Lows

Community

WunderPhotos

Upload Photos

1,891,837 Photos téléchargées !

WunderBlog® & News

Nearby

Qualité de l'air

  Qualité de l'air Indice de la qualité de l'air Polluant
Not available.

Épaisseur de neige

Station Depth Altitude

Activité sismique

Ville Distance Mag. Time & Date
Minimum magnitude displayed is 2.5.

Températures des eaux côtières

Lieu Température

Stations

Stations météo à proximité

Emplacement de la station Température Refroidissement éolien Point de rosée Humidité Vent Precip. Alt. Mise à jour Type
                   

Watches & Warnings

There are currently no watches in effect.